sensor_id;sensor_type;location;lat;lon;timestamp;P1;durP1;ratioP1;P2;durP2;ratioP2
5077;SDS011;2557;51.390;7.494;2024-01-11T00:00:08;50.25;;;23.10;;
5077;SDS011;2557;51.390;7.494;2024-01-11T00:02:34;51.70;;;23.75;;
5077;SDS011;2557;51.390;7.494;2024-01-11T00:05:00;46.50;;;22.00;;
5077;SDS011;2557;51.390;7.494;2024-01-11T00:07:26;47.50;;;23.17;;
5077;SDS011;2557;51.390;7.494;2024-01-11T00:09:52;39.13;;;20.17;;
5077;SDS011;2557;51.390;7.494;2024-01-11T00:12:18;43.15;;;21.30;;
5077;SDS011;2557;51.390;7.494;2024-01-11T00:14:44;51.90;;;22.55;;
5077;SDS011;2557;51.390;7.494;2024-01-11T00:17:10;39.57;;;21.33;;
5077;SDS011;2557;51.390;7.494;2024-01-11T00:19:37;42.35;;;22.33;;
5077;SDS011;2557;51.390;7.494;2024-01-11T00:22:04;42.85;;;21.90;;
5077;SDS011;2557;51.390;7.494;2024-01-11T00:24:31;58.92;;;21.48;;
5077;SDS011;2557;51.390;7.494;2024-01-11T00:26:56;39.50;;;21.60;;
5077;SDS011;2557;51.390;7.494;2024-01-11T00:29:22;47.22;;;23.00;;
5077;SDS011;2557;51.390;7.494;2024-01-11T00:31:48;47.20;;;22.77;;
5077;SDS011;2557;51.390;7.494;2024-01-11T00:34:14;42.08;;;20.13;;
5077;SDS011;2557;51.390;7.494;2024-01-11T00:36:40;42.70;;;22.15;;
5077;SDS011;2557;51.390;7.494;2024-01-11T00:39:06;43.13;;;22.10;;
5077;SDS011;2557;51.390;7.494;2024-01-11T00:41:32;47.08;;;21.73;;
5077;SDS011;2557;51.390;7.494;2024-01-11T00:43:58;45.53;;;21.38;;
5077;SDS011;2557;51.390;7.494;2024-01-11T00:46:24;44.88;;;21.55;;
5077;SDS011;2557;51.390;7.494;2024-01-11T00:48:50;44.42;;;20.45;;
5077;SDS011;2557;51.390;7.494;2024-01-11T00:51:16;33.78;;;21.50;;
5077;SDS011;2557;51.390;7.494;2024-01-11T00:53:42;49.25;;;19.80;;
5077;SDS011;2557;51.390;7.494;2024-01-11T00:56:15;45.05;;;21.05;;
5077;SDS011;2557;51.390;7.494;2024-01-11T00:58:41;45.05;;;21.42;;
5077;SDS011;2557;51.390;7.494;2024-01-11T01:01:10;43.70;;;20.38;;
5077;SDS011;2557;51.390;7.494;2024-01-11T01:03:36;35.97;;;18.50;;
5077;SDS011;2557;51.390;7.494;2024-01-11T01:06:02;47.83;;;21.52;;
5077;SDS011;2557;51.390;7.494;2024-01-11T01:08:29;45.33;;;22.17;;
5077;SDS011;2557;51.390;7.494;2024-01-11T01:10:55;43.83;;;20.30;;
5077;SDS011;2557;51.390;7.494;2024-01-11T01:13:21;39.80;;;21.00;;
5077;SDS011;2557;51.390;7.494;2024-01-11T01:15:47;51.85;;;22.42;;
5077;SDS011;2557;51.390;7.494;2024-01-11T01:18:13;56.30;;;22.35;;
5077;SDS011;2557;51.390;7.494;2024-01-11T01:20:39;44.53;;;20.42;;
5077;SDS011;2557;51.390;7.494;2024-01-11T01:23:05;41.03;;;19.75;;
5077;SDS011;2557;51.390;7.494;2024-01-11T01:25:31;45.40;;;21.55;;
5077;SDS011;2557;51.390;7.494;2024-01-11T01:28:00;37.08;;;20.35;;
5077;SDS011;2557;51.390;7.494;2024-01-11T01:30:29;38.03;;;20.88;;
5077;SDS011;2557;51.390;7.494;2024-01-11T01:32:55;46.33;;;20.58;;
5077;SDS011;2557;51.390;7.494;2024-01-11T01:35:21;37.60;;;20.27;;
5077;SDS011;2557;51.390;7.494;2024-01-11T01:37:47;50.75;;;22.50;;
5077;SDS011;2557;51.390;7.494;2024-01-11T01:40:13;48.75;;;19.65;;
5077;SDS011;2557;51.390;7.494;2024-01-11T01:42:42;40.90;;;19.33;;
5077;SDS011;2557;51.390;7.494;2024-01-11T01:45:11;40.03;;;19.85;;
5077;SDS011;2557;51.390;7.494;2024-01-11T01:47:41;39.80;;;21.08;;
5077;SDS011;2557;51.390;7.494;2024-01-11T01:50:07;40.03;;;19.60;;
5077;SDS011;2557;51.390;7.494;2024-01-11T01:52:33;44.20;;;19.95;;
5077;SDS011;2557;51.390;7.494;2024-01-11T01:55:01;41.42;;;19.33;;
5077;SDS011;2557;51.390;7.494;2024-01-11T01:57:27;42.05;;;20.17;;
5077;SDS011;2557;51.390;7.494;2024-01-11T01:59:53;44.85;;;20.45;;
5077;SDS011;2557;51.390;7.494;2024-01-11T02:02:20;36.95;;;21.02;;
5077;SDS011;2557;51.390;7.494;2024-01-11T02:04:46;39.90;;;19.60;;
5077;SDS011;2557;51.390;7.494;2024-01-11T02:07:12;40.75;;;18.33;;
5077;SDS011;2557;51.390;7.494;2024-01-11T02:09:39;45.70;;;22.38;;
5077;SDS011;2557;51.390;7.494;2024-01-11T02:12:05;35.13;;;19.70;;
5077;SDS011;2557;51.390;7.494;2024-01-11T02:14:36;36.92;;;19.58;;
5077;SDS011;2557;51.390;7.494;2024-01-11T02:17:03;40.85;;;20.20;;
5077;SDS011;2557;51.390;7.494;2024-01-11T02:19:29;37.58;;;19.92;;
5077;SDS011;2557;51.390;7.494;2024-01-11T02:21:55;35.83;;;17.88;;
5077;SDS011;2557;51.390;7.494;2024-01-11T02:24:22;39.45;;;19.13;;
5077;SDS011;2557;51.390;7.494;2024-01-11T02:27:06;35.20;;;18.30;;
5077;SDS011;2557;51.390;7.494;2024-01-11T02:29:33;39.03;;;18.45;;
5077;SDS011;2557;51.390;7.494;2024-01-11T02:32:00;46.72;;;19.63;;
5077;SDS011;2557;51.390;7.494;2024-01-11T02:34:27;35.45;;;19.17;;
5077;SDS011;2557;51.390;7.494;2024-01-11T02:36:53;30.38;;;18.27;;
5077;SDS011;2557;51.390;7.494;2024-01-11T02:39:20;36.28;;;19.95;;
5077;SDS011;2557;51.390;7.494;2024-01-11T02:41:47;38.95;;;18.95;;
5077;SDS011;2557;51.390;7.494;2024-01-11T02:44:13;45.03;;;20.63;;
5077;SDS011;2557;51.390;7.494;2024-01-11T02:46:39;37.70;;;18.40;;
5077;SDS011;2557;51.390;7.494;2024-01-11T02:49:05;39.05;;;19.58;;
5077;SDS011;2557;51.390;7.494;2024-01-11T02:51:31;40.72;;;18.33;;
5077;SDS011;2557;51.390;7.494;2024-01-11T02:53:57;38.20;;;18.45;;
5077;SDS011;2557;51.390;7.494;2024-01-11T02:56:23;37.75;;;20.15;;
5077;SDS011;2557;51.390;7.494;2024-01-11T02:58:49;43.17;;;19.10;;
5077;SDS011;2557;51.390;7.494;2024-01-11T03:01:15;39.00;;;18.73;;
5077;SDS011;2557;51.390;7.494;2024-01-11T03:03:41;34.70;;;19.40;;
5077;SDS011;2557;51.390;7.494;2024-01-11T03:06:07;32.13;;;18.70;;
5077;SDS011;2557;51.390;7.494;2024-01-11T03:08:33;38.83;;;18.42;;
5077;SDS011;2557;51.390;7.494;2024-01-11T03:10:59;46.58;;;20.90;;
5077;SDS011;2557;51.390;7.494;2024-01-11T03:13:25;37.95;;;20.45;;
5077;SDS011;2557;51.390;7.494;2024-01-11T03:15:51;38.33;;;18.95;;
5077;SDS011;2557;51.390;7.494;2024-01-11T03:18:17;41.05;;;19.67;;
5077;SDS011;2557;51.390;7.494;2024-01-11T03:20:43;44.45;;;19.48;;
5077;SDS011;2557;51.390;7.494;2024-01-11T03:23:09;39.20;;;20.30;;
5077;SDS011;2557;51.390;7.494;2024-01-11T03:25:35;33.17;;;19.02;;
5077;SDS011;2557;51.390;7.494;2024-01-11T03:28:01;38.58;;;18.08;;
5077;SDS011;2557;51.390;7.494;2024-01-11T03:30:27;46.72;;;19.00;;
5077;SDS011;2557;51.390;7.494;2024-01-11T03:32:53;53.25;;;21.40;;
5077;SDS011;2557;51.390;7.494;2024-01-11T03:35:19;39.95;;;18.65;;
5077;SDS011;2557;51.390;7.494;2024-01-11T03:37:46;35.33;;;19.48;;
5077;SDS011;2557;51.390;7.494;2024-01-11T03:40:12;40.20;;;17.60;;
5077;SDS011;2557;51.390;7.494;2024-01-11T03:42:39;37.30;;;17.80;;
5077;SDS011;2557;51.390;7.494;2024-01-11T03:45:05;37.17;;;17.33;;
5077;SDS011;2557;51.390;7.494;2024-01-11T03:47:31;36.53;;;19.33;;
5077;SDS011;2557;51.390;7.494;2024-01-11T03:49:57;42.72;;;17.67;;
5077;SDS011;2557;51.390;7.494;2024-01-11T03:52:23;48.47;;;18.55;;
5077;SDS011;2557;51.390;7.494;2024-01-11T03:54:49;43.28;;;18.83;;
5077;SDS011;2557;51.390;7.494;2024-01-11T03:57:15;42.03;;;20.05;;
5077;SDS011;2557;51.390;7.494;2024-01-11T03:59:42;44.33;;;22.17;;
5077;SDS011;2557;51.390;7.494;2024-01-11T04:02:08;50.10;;;22.13;;
5077;SDS011;2557;51.390;7.494;2024-01-11T04:04:35;51.28;;;21.83;;
5077;SDS011;2557;51.390;7.494;2024-01-11T04:07:01;39.50;;;22.85;;
5077;SDS011;2557;51.390;7.494;2024-01-11T04:09:27;40.22;;;19.20;;
5077;SDS011;2557;51.390;7.494;2024-01-11T04:11:53;48.90;;;21.10;;
5077;SDS011;2557;51.390;7.494;2024-01-11T04:14:19;43.13;;;20.55;;
5077;SDS011;2557;51.390;7.494;2024-01-11T04:16:45;33.88;;;17.33;;
5077;SDS011;2557;51.390;7.494;2024-01-11T04:19:11;38.00;;;19.85;;
5077;SDS011;2557;51.390;7.494;2024-01-11T04:21:37;44.42;;;20.38;;
5077;SDS011;2557;51.390;7.494;2024-01-11T04:24:06;39.83;;;19.35;;
5077;SDS011;2557;51.390;7.494;2024-01-11T04:26:32;38.80;;;18.35;;
5077;SDS011;2557;51.390;7.494;2024-01-11T04:28:58;37.55;;;19.48;;
5077;SDS011;2557;51.390;7.494;2024-01-11T04:31:25;44.53;;;21.77;;
5077;SDS011;2557;51.390;7.494;2024-01-11T04:33:51;46.28;;;20.73;;
5077;SDS011;2557;51.390;7.494;2024-01-11T04:36:17;45.70;;;21.33;;
5077;SDS011;2557;51.390;7.494;2024-01-11T04:38:43;41.45;;;20.48;;
5077;SDS011;2557;51.390;7.494;2024-01-11T04:41:09;38.60;;;19.85;;
5077;SDS011;2557;51.390;7.494;2024-01-11T04:43:39;43.78;;;19.65;;
5077;SDS011;2557;51.390;7.494;2024-01-11T04:48:40;39.45;;;19.58;;
5077;SDS011;2557;51.390;7.494;2024-01-11T04:51:07;42.63;;;21.58;;
5077;SDS011;2557;51.390;7.494;2024-01-11T04:53:33;41.25;;;20.63;;
5077;SDS011;2557;51.390;7.494;2024-01-11T04:55:58;35.55;;;19.13;;
5077;SDS011;2557;51.390;7.494;2024-01-11T04:58:24;45.30;;;19.50;;
5077;SDS011;2557;51.390;7.494;2024-01-11T05:00:50;45.92;;;19.50;;
5077;SDS011;2557;51.390;7.494;2024-01-11T05:03:16;36.15;;;18.02;;
5077;SDS011;2557;51.390;7.494;2024-01-11T05:05:42;47.42;;;22.58;;
5077;SDS011;2557;51.390;7.494;2024-01-11T05:08:08;45.00;;;20.98;;
5077;SDS011;2557;51.390;7.494;2024-01-11T05:10:35;41.65;;;21.48;;
5077;SDS011;2557;51.390;7.494;2024-01-11T05:13:01;41.85;;;20.48;;
5077;SDS011;2557;51.390;7.494;2024-01-11T05:15:27;42.90;;;21.83;;
5077;SDS011;2557;51.390;7.494;2024-01-11T05:17:54;43.05;;;21.10;;
5077;SDS011;2557;51.390;7.494;2024-01-11T05:20:21;46.65;;;20.92;;
5077;SDS011;2557;51.390;7.494;2024-01-11T05:22:47;43.53;;;20.38;;
5077;SDS011;2557;51.390;7.494;2024-01-11T05:25:13;39.70;;;19.35;;
5077;SDS011;2557;51.390;7.494;2024-01-11T05:27:39;35.60;;;18.92;;
5077;SDS011;2557;51.390;7.494;2024-01-11T05:30:05;41.45;;;20.38;;
5077;SDS011;2557;51.390;7.494;2024-01-11T05:32:32;45.63;;;19.20;;
5077;SDS011;2557;51.390;7.494;2024-01-11T05:34:58;46.75;;;21.83;;
5077;SDS011;2557;51.390;7.494;2024-01-11T05:37:24;48.58;;;22.17;;
5077;SDS011;2557;51.390;7.494;2024-01-11T05:39:50;46.83;;;21.10;;
5077;SDS011;2557;51.390;7.494;2024-01-11T05:42:16;44.28;;;21.15;;
5077;SDS011;2557;51.390;7.494;2024-01-11T05:44:42;46.35;;;21.58;;
5077;SDS011;2557;51.390;7.494;2024-01-11T05:47:09;41.60;;;21.25;;
5077;SDS011;2557;51.390;7.494;2024-01-11T05:49:35;48.25;;;23.13;;
5077;SDS011;2557;51.390;7.494;2024-01-11T05:52:01;45.40;;;21.15;;
5077;SDS011;2557;51.390;7.494;2024-01-11T05:54:27;52.50;;;22.10;;
5077;SDS011;2557;51.390;7.494;2024-01-11T05:56:53;39.47;;;20.20;;
5077;SDS011;2557;51.390;7.494;2024-01-11T05:59:22;42.40;;;19.77;;
5077;SDS011;2557;51.390;7.494;2024-01-11T06:01:48;49.17;;;21.45;;
5077;SDS011;2557;51.390;7.494;2024-01-11T06:04:14;41.80;;;21.73;;
5077;SDS011;2557;51.390;7.494;2024-01-11T06:06:41;33.95;;;19.65;;
5077;SDS011;2557;51.390;7.494;2024-01-11T06:09:07;40.45;;;19.83;;
5077;SDS011;2557;51.390;7.494;2024-01-11T06:11:33;44.45;;;19.98;;
5077;SDS011;2557;51.390;7.494;2024-01-11T06:13:59;40.50;;;21.08;;
5077;SDS011;2557;51.390;7.494;2024-01-11T06:16:26;40.70;;;22.10;;
5077;SDS011;2557;51.390;7.494;2024-01-11T06:18:52;41.70;;;20.60;;
5077;SDS011;2557;51.390;7.494;2024-01-11T06:21:18;39.45;;;20.05;;
5077;SDS011;2557;51.390;7.494;2024-01-11T06:23:44;43.28;;;20.65;;
5077;SDS011;2557;51.390;7.494;2024-01-11T06:26:10;36.25;;;19.92;;
5077;SDS011;2557;51.390;7.494;2024-01-11T06:28:36;42.85;;;20.65;;
5077;SDS011;2557;51.390;7.494;2024-01-11T06:31:02;44.70;;;20.05;;
5077;SDS011;2557;51.390;7.494;2024-01-11T06:33:28;39.67;;;21.80;;
5077;SDS011;2557;51.390;7.494;2024-01-11T06:35:54;43.35;;;19.50;;
5077;SDS011;2557;51.390;7.494;2024-01-11T06:38:21;43.85;;;21.50;;
5077;SDS011;2557;51.390;7.494;2024-01-11T06:40:47;48.78;;;22.60;;
5077;SDS011;2557;51.390;7.494;2024-01-11T06:43:14;36.85;;;18.73;;
5077;SDS011;2557;51.390;7.494;2024-01-11T06:45:40;36.80;;;20.60;;
5077;SDS011;2557;51.390;7.494;2024-01-11T06:48:06;40.08;;;20.60;;
5077;SDS011;2557;51.390;7.494;2024-01-11T06:50:32;48.70;;;20.65;;
5077;SDS011;2557;51.390;7.494;2024-01-11T06:52:59;43.78;;;19.35;;
5077;SDS011;2557;51.390;7.494;2024-01-11T06:55:25;42.70;;;20.83;;
5077;SDS011;2557;51.390;7.494;2024-01-11T06:57:51;59.10;;;21.42;;
5077;SDS011;2557;51.390;7.494;2024-01-11T07:00:17;45.35;;;22.67;;
5077;SDS011;2557;51.390;7.494;2024-01-11T07:02:43;44.58;;;21.17;;
5077;SDS011;2557;51.390;7.494;2024-01-11T07:05:09;49.45;;;21.48;;
5077;SDS011;2557;51.390;7.494;2024-01-11T07:07:35;42.05;;;20.55;;
5077;SDS011;2557;51.390;7.494;2024-01-11T07:10:01;41.53;;;21.25;;
5077;SDS011;2557;51.390;7.494;2024-01-11T07:12:30;35.10;;;19.55;;
5077;SDS011;2557;51.390;7.494;2024-01-11T07:14:56;56.67;;;23.98;;
5077;SDS011;2557;51.390;7.494;2024-01-11T07:17:22;35.38;;;20.10;;
5077;SDS011;2557;51.390;7.494;2024-01-11T07:19:48;40.97;;;22.55;;
5077;SDS011;2557;51.390;7.494;2024-01-11T07:22:14;44.88;;;20.75;;
5077;SDS011;2557;51.390;7.494;2024-01-11T07:24:40;46.28;;;20.70;;
5077;SDS011;2557;51.390;7.494;2024-01-11T07:27:07;39.42;;;20.15;;
5077;SDS011;2557;51.390;7.494;2024-01-11T07:29:33;40.10;;;20.10;;
5077;SDS011;2557;51.390;7.494;2024-01-11T07:32:00;38.67;;;20.85;;
5077;SDS011;2557;51.390;7.494;2024-01-11T07:34:26;40.22;;;20.55;;
5077;SDS011;2557;51.390;7.494;2024-01-11T07:36:52;46.67;;;21.15;;
5077;SDS011;2557;51.390;7.494;2024-01-11T07:39:19;41.83;;;19.33;;
5077;SDS011;2557;51.390;7.494;2024-01-11T07:41:46;37.78;;;20.10;;
5077;SDS011;2557;51.390;7.494;2024-01-11T07:44:12;37.63;;;21.45;;
5077;SDS011;2557;51.390;7.494;2024-01-11T07:46:38;38.65;;;19.08;;
5077;SDS011;2557;51.390;7.494;2024-01-11T07:49:04;39.65;;;20.15;;
5077;SDS011;2557;51.390;7.494;2024-01-11T07:51:30;42.75;;;21.17;;
5077;SDS011;2557;51.390;7.494;2024-01-11T07:53:56;41.22;;;21.15;;
5077;SDS011;2557;51.390;7.494;2024-01-11T07:56:23;46.00;;;22.40;;
5077;SDS011;2557;51.390;7.494;2024-01-11T07:58:49;43.15;;;20.63;;
5077;SDS011;2557;51.390;7.494;2024-01-11T08:01:15;33.80;;;19.75;;
5077;SDS011;2557;51.390;7.494;2024-01-11T08:03:42;40.05;;;21.27;;
5077;SDS011;2557;51.390;7.494;2024-01-11T08:06:10;52.38;;;22.50;;
5077;SDS011;2557;51.390;7.494;2024-01-11T08:08:36;44.03;;;22.50;;
5077;SDS011;2557;51.390;7.494;2024-01-11T08:11:08;38.38;;;21.45;;
5077;SDS011;2557;51.390;7.494;2024-01-11T08:13:34;50.45;;;23.58;;
5077;SDS011;2557;51.390;7.494;2024-01-11T08:16:02;44.40;;;20.27;;
5077;SDS011;2557;51.390;7.494;2024-01-11T08:18:30;41.45;;;19.15;;
5077;SDS011;2557;51.390;7.494;2024-01-11T08:20:56;46.50;;;21.05;;
5077;SDS011;2557;51.390;7.494;2024-01-11T08:23:22;36.53;;;18.63;;
5077;SDS011;2557;51.390;7.494;2024-01-11T08:25:48;38.33;;;19.48;;
5077;SDS011;2557;51.390;7.494;2024-01-11T08:28:14;45.33;;;20.95;;
5077;SDS011;2557;51.390;7.494;2024-01-11T08:30:40;49.20;;;22.73;;
5077;SDS011;2557;51.390;7.494;2024-01-11T08:33:07;50.58;;;20.50;;
5077;SDS011;2557;51.390;7.494;2024-01-11T08:35:34;49.13;;;24.45;;
5077;SDS011;2557;51.390;7.494;2024-01-11T08:38:00;43.55;;;21.38;;
5077;SDS011;2557;51.390;7.494;2024-01-11T08:40:27;47.05;;;22.00;;
5077;SDS011;2557;51.390;7.494;2024-01-11T08:42:54;39.53;;;21.67;;
5077;SDS011;2557;51.390;7.494;2024-01-11T08:45:20;42.88;;;21.40;;
5077;SDS011;2557;51.390;7.494;2024-01-11T08:47:47;47.72;;;23.45;;
5077;SDS011;2557;51.390;7.494;2024-01-11T08:50:13;50.72;;;22.85;;
5077;SDS011;2557;51.390;7.494;2024-01-11T08:52:40;53.53;;;23.70;;
5077;SDS011;2557;51.390;7.494;2024-01-11T08:55:06;45.25;;;21.60;;
5077;SDS011;2557;51.390;7.494;2024-01-11T08:57:33;44.65;;;23.65;;
5077;SDS011;2557;51.390;7.494;2024-01-11T09:00:01;50.63;;;24.15;;
5077;SDS011;2557;51.390;7.494;2024-01-11T09:02:27;41.60;;;22.08;;
5077;SDS011;2557;51.390;7.494;2024-01-11T09:04:53;48.67;;;23.60;;
5077;SDS011;2557;51.390;7.494;2024-01-11T09:07:19;45.93;;;22.10;;
5077;SDS011;2557;51.390;7.494;2024-01-11T09:09:46;43.65;;;20.52;;
5077;SDS011;2557;51.390;7.494;2024-01-11T09:12:12;42.00;;;20.33;;
5077;SDS011;2557;51.390;7.494;2024-01-11T09:14:38;36.08;;;19.25;;
5077;SDS011;2557;51.390;7.494;2024-01-11T09:17:04;31.30;;;19.40;;
5077;SDS011;2557;51.390;7.494;2024-01-11T09:19:31;31.23;;;20.75;;
5077;SDS011;2557;51.390;7.494;2024-01-11T09:22:02;39.35;;;21.92;;
5077;SDS011;2557;51.390;7.494;2024-01-11T09:24:28;35.58;;;22.15;;
5077;SDS011;2557;51.390;7.494;2024-01-11T09:26:54;41.40;;;23.00;;
5077;SDS011;2557;51.390;7.494;2024-01-11T09:29:20;37.47;;;24.00;;
5077;SDS011;2557;51.390;7.494;2024-01-11T09:31:46;33.63;;;21.80;;
5077;SDS011;2557;51.390;7.494;2024-01-11T09:34:12;40.40;;;21.83;;
5077;SDS011;2557;51.390;7.494;2024-01-11T09:36:38;31.90;;;20.47;;
5077;SDS011;2557;51.390;7.494;2024-01-11T09:39:04;39.77;;;21.13;;
5077;SDS011;2557;51.390;7.494;2024-01-11T09:41:30;41.53;;;22.47;;
5077;SDS011;2557;51.390;7.494;2024-01-11T09:43:57;31.00;;;18.97;;
5077;SDS011;2557;51.390;7.494;2024-01-11T09:46:26;29.87;;;21.27;;
5077;SDS011;2557;51.390;7.494;2024-01-11T09:48:53;35.03;;;22.27;;
5077;SDS011;2557;51.390;7.494;2024-01-11T09:51:19;34.80;;;18.60;;
5077;SDS011;2557;51.390;7.494;2024-01-11T09:53:45;33.90;;;22.33;;
5077;SDS011;2557;51.390;7.494;2024-01-11T09:56:12;29.43;;;21.90;;
5077;SDS011;2557;51.390;7.494;2024-01-11T09:58:39;32.37;;;22.47;;
5077;SDS011;2557;51.390;7.494;2024-01-11T10:01:09;31.47;;;21.97;;
5077;SDS011;2557;51.390;7.494;2024-01-11T10:03:39;31.20;;;21.93;;
5077;SDS011;2557;51.390;7.494;2024-01-11T10:06:06;29.47;;;21.63;;
5077;SDS011;2557;51.390;7.494;2024-01-11T10:08:32;32.83;;;20.73;;
5077;SDS011;2557;51.390;7.494;2024-01-11T10:10:58;29.40;;;21.57;;
5077;SDS011;2557;51.390;7.494;2024-01-11T10:13:28;32.67;;;23.50;;
5077;SDS011;2557;51.390;7.494;2024-01-11T10:16:10;29.60;;;22.33;;
5077;SDS011;2557;51.390;7.494;2024-01-11T10:18:41;36.43;;;24.23;;
5077;SDS011;2557;51.390;7.494;2024-01-11T10:21:07;36.83;;;22.20;;
5077;SDS011;2557;51.390;7.494;2024-01-11T10:23:34;29.03;;;20.63;;
5077;SDS011;2557;51.390;7.494;2024-01-11T10:26:01;28.27;;;22.20;;
5077;SDS011;2557;51.390;7.494;2024-01-11T10:28:27;34.17;;;22.63;;
5077;SDS011;2557;51.390;7.494;2024-01-11T10:30:53;30.23;;;23.30;;
5077;SDS011;2557;51.390;7.494;2024-01-11T10:33:20;31.10;;;24.00;;
5077;SDS011;2557;51.390;7.494;2024-01-11T10:35:46;31.17;;;24.50;;
5077;SDS011;2557;51.390;7.494;2024-01-11T10:38:16;32.83;;;22.27;;
5077;SDS011;2557;51.390;7.494;2024-01-11T10:40:42;28.17;;;23.00;;
5077;SDS011;2557;51.390;7.494;2024-01-11T10:43:09;26.93;;;22.20;;
5077;SDS011;2557;51.390;7.494;2024-01-11T10:45:38;32.40;;;23.60;;
5077;SDS011;2557;51.390;7.494;2024-01-11T10:48:12;30.87;;;21.20;;
5077;SDS011;2557;51.390;7.494;2024-01-11T10:50:41;29.67;;;23.00;;
5077;SDS011;2557;51.390;7.494;2024-01-11T10:55:52;32.53;;;24.37;;
5077;SDS011;2557;51.390;7.494;2024-01-11T10:58:19;31.03;;;24.50;;
5077;SDS011;2557;51.390;7.494;2024-01-11T11:00:46;33.47;;;22.83;;
5077;SDS011;2557;51.390;7.494;2024-01-11T11:03:13;32.37;;;23.43;;
5077;SDS011;2557;51.390;7.494;2024-01-11T11:05:40;29.50;;;22.07;;
5077;SDS011;2557;51.390;7.494;2024-01-11T11:08:07;30.70;;;24.53;;
5077;SDS011;2557;51.390;7.494;2024-01-11T11:10:33;35.50;;;25.50;;
5077;SDS011;2557;51.390;7.494;2024-01-11T11:13:00;31.53;;;26.00;;
5077;SDS011;2557;51.390;7.494;2024-01-11T11:15:29;32.10;;;25.13;;
5077;SDS011;2557;51.390;7.494;2024-01-11T11:17:55;35.40;;;24.30;;
5077;SDS011;2557;51.390;7.494;2024-01-11T11:20:21;30.40;;;24.07;;
5077;SDS011;2557;51.390;7.494;2024-01-11T11:23:03;33.87;;;24.93;;
5077;SDS011;2557;51.390;7.494;2024-01-11T11:25:30;33.87;;;24.93;;
5077;SDS011;2557;51.390;7.494;2024-01-11T11:27:57;32.10;;;25.10;;
5077;SDS011;2557;51.390;7.494;2024-01-11T11:30:23;32.00;;;23.60;;
5077;SDS011;2557;51.390;7.494;2024-01-11T11:32:49;32.80;;;24.80;;
5077;SDS011;2557;51.390;7.494;2024-01-11T11:35:15;31.40;;;23.70;;
5077;SDS011;2557;51.390;7.494;2024-01-11T11:37:41;32.23;;;25.37;;
5077;SDS011;2557;51.390;7.494;2024-01-11T11:40:08;28.60;;;23.60;;
5077;SDS011;2557;51.390;7.494;2024-01-11T11:42:37;31.90;;;24.37;;
5077;SDS011;2557;51.390;7.494;2024-01-11T11:45:05;32.30;;;23.80;;
5077;SDS011;2557;51.390;7.494;2024-01-11T11:47:35;27.47;;;22.90;;
5077;SDS011;2557;51.390;7.494;2024-01-11T11:52:35;33.10;;;25.10;;
5077;SDS011;2557;51.390;7.494;2024-01-11T11:55:01;33.37;;;26.17;;
5077;SDS011;2557;51.390;7.494;2024-01-11T11:57:28;39.10;;;26.13;;
5077;SDS011;2557;51.390;7.494;2024-01-11T11:59:57;32.30;;;25.10;;
5077;SDS011;2557;51.390;7.494;2024-01-11T12:02:24;35.73;;;25.73;;
5077;SDS011;2557;51.390;7.494;2024-01-11T12:04:50;33.20;;;26.40;;
5077;SDS011;2557;51.390;7.494;2024-01-11T12:07:16;38.03;;;23.23;;
5077;SDS011;2557;51.390;7.494;2024-01-11T12:09:42;31.83;;;25.20;;
5077;SDS011;2557;51.390;7.494;2024-01-11T12:12:09;37.83;;;26.37;;
5077;SDS011;2557;51.390;7.494;2024-01-11T12:14:35;33.90;;;24.10;;
5077;SDS011;2557;51.390;7.494;2024-01-11T12:17:01;28.80;;;22.33;;
5077;SDS011;2557;51.390;7.494;2024-01-11T12:19:27;30.57;;;24.60;;
5077;SDS011;2557;51.390;7.494;2024-01-11T12:21:54;27.83;;;22.70;;
5077;SDS011;2557;51.390;7.494;2024-01-11T12:24:20;30.93;;;23.43;;
5077;SDS011;2557;51.390;7.494;2024-01-11T12:26:49;31.40;;;22.63;;
5077;SDS011;2557;51.390;7.494;2024-01-11T12:29:18;29.83;;;24.60;;
5077;SDS011;2557;51.390;7.494;2024-01-11T12:31:45;38.90;;;25.80;;
5077;SDS011;2557;51.390;7.494;2024-01-11T12:34:14;32.77;;;24.97;;
5077;SDS011;2557;51.390;7.494;2024-01-11T12:36:40;36.30;;;25.83;;
5077;SDS011;2557;51.390;7.494;2024-01-11T12:39:06;31.33;;;23.63;;
5077;SDS011;2557;51.390;7.494;2024-01-11T12:41:34;34.07;;;26.47;;
5077;SDS011;2557;51.390;7.494;2024-01-11T12:44:00;41.73;;;29.03;;
5077;SDS011;2557;51.390;7.494;2024-01-11T12:46:26;41.03;;;29.00;;
5077;SDS011;2557;51.390;7.494;2024-01-11T12:48:52;42.70;;;30.40;;
5077;SDS011;2557;51.390;7.494;2024-01-11T12:51:18;42.00;;;27.57;;
5077;SDS011;2557;51.390;7.494;2024-01-11T12:53:48;48.60;;;29.37;;
5077;SDS011;2557;51.390;7.494;2024-01-11T12:56:14;45.07;;;30.97;;
5077;SDS011;2557;51.390;7.494;2024-01-11T12:58:41;43.97;;;30.80;;
5077;SDS011;2557;51.390;7.494;2024-01-11T13:01:07;45.57;;;31.20;;
5077;SDS011;2557;51.390;7.494;2024-01-11T13:03:34;48.87;;;29.00;;
5077;SDS011;2557;51.390;7.494;2024-01-11T13:06:01;40.03;;;28.13;;
5077;SDS011;2557;51.390;7.494;2024-01-11T13:08:29;38.10;;;26.03;;
5077;SDS011;2557;51.390;7.494;2024-01-11T13:10:56;44.40;;;28.07;;
5077;SDS011;2557;51.390;7.494;2024-01-11T13:13:22;44.17;;;28.90;;
5077;SDS011;2557;51.390;7.494;2024-01-11T13:15:54;41.37;;;28.47;;
5077;SDS011;2557;51.390;7.494;2024-01-11T13:18:20;42.00;;;29.50;;
5077;SDS011;2557;51.390;7.494;2024-01-11T13:20:46;39.33;;;27.37;;
5077;SDS011;2557;51.390;7.494;2024-01-11T13:23:16;38.07;;;27.90;;
5077;SDS011;2557;51.390;7.494;2024-01-11T13:25:45;41.53;;;26.40;;
5077;SDS011;2557;51.390;7.494;2024-01-11T13:28:11;41.17;;;28.83;;
5077;SDS011;2557;51.390;7.494;2024-01-11T13:30:37;39.87;;;27.50;;
5077;SDS011;2557;51.390;7.494;2024-01-11T13:33:04;41.70;;;26.20;;
5077;SDS011;2557;51.390;7.494;2024-01-11T13:35:30;38.50;;;22.43;;
5077;SDS011;2557;51.390;7.494;2024-01-11T13:37:56;37.00;;;23.50;;
5077;SDS011;2557;51.390;7.494;2024-01-11T13:40:22;41.73;;;23.90;;
5077;SDS011;2557;51.390;7.494;2024-01-11T13:42:49;38.40;;;24.00;;
5077;SDS011;2557;51.390;7.494;2024-01-11T13:45:15;36.73;;;23.10;;
5077;SDS011;2557;51.390;7.494;2024-01-11T13:47:41;41.13;;;23.93;;
5077;SDS011;2557;51.390;7.494;2024-01-11T13:50:07;38.65;;;22.92;;
5077;SDS011;2557;51.390;7.494;2024-01-11T13:52:33;44.92;;;24.88;;
5077;SDS011;2557;51.390;7.494;2024-01-11T13:54:59;44.70;;;24.87;;
5077;SDS011;2557;51.390;7.494;2024-01-11T13:57:25;44.90;;;26.20;;
5077;SDS011;2557;51.390;7.494;2024-01-11T13:59:51;42.87;;;25.13;;
5077;SDS011;2557;51.390;7.494;2024-01-11T14:02:17;49.67;;;25.97;;
5077;SDS011;2557;51.390;7.494;2024-01-11T14:04:43;43.33;;;24.70;;
5077;SDS011;2557;51.390;7.494;2024-01-11T14:07:09;37.57;;;23.67;;
5077;SDS011;2557;51.390;7.494;2024-01-11T14:09:35;47.43;;;24.10;;
5077;SDS011;2557;51.390;7.494;2024-01-11T14:12:01;50.30;;;26.20;;
5077;SDS011;2557;51.390;7.494;2024-01-11T14:14:27;48.00;;;24.83;;
5077;SDS011;2557;51.390;7.494;2024-01-11T14:16:53;54.10;;;25.13;;
5077;SDS011;2557;51.390;7.494;2024-01-11T14:19:19;51.55;;;25.88;;
5077;SDS011;2557;51.390;7.494;2024-01-11T14:21:45;41.83;;;25.00;;
5077;SDS011;2557;51.390;7.494;2024-01-11T14:24:11;51.60;;;25.67;;
5077;SDS011;2557;51.390;7.494;2024-01-11T14:26:37;44.45;;;23.98;;
5077;SDS011;2557;51.390;7.494;2024-01-11T14:29:04;44.55;;;25.73;;
5077;SDS011;2557;51.390;7.494;2024-01-11T14:31:30;42.17;;;23.43;;
5077;SDS011;2557;51.390;7.494;2024-01-11T14:33:56;44.53;;;25.13;;
5077;SDS011;2557;51.390;7.494;2024-01-11T14:36:22;45.63;;;24.83;;
5077;SDS011;2557;51.390;7.494;2024-01-11T14:38:48;47.45;;;24.70;;
5077;SDS011;2557;51.390;7.494;2024-01-11T14:41:14;41.22;;;24.17;;
5077;SDS011;2557;51.390;7.494;2024-01-11T14:43:40;45.67;;;23.73;;
5077;SDS011;2557;51.390;7.494;2024-01-11T14:46:06;47.83;;;24.13;;
5077;SDS011;2557;51.390;7.494;2024-01-11T14:48:35;42.85;;;23.50;;
5077;SDS011;2557;51.390;7.494;2024-01-11T14:51:01;43.73;;;25.40;;